Time;durP1;ratioP1;P1;durP2;ratioP2;P2;SDS_P1;SDS_P2;PMS_P1;PMS_P2;Temp;Humidity;BMP_temperature;BMP_pressure;BME280_temperature;BME280_humidity;BME280_pressure;Samples;Min_cycle;Max_cycle;Signal;HPM_P1;HPM_P2
2020/12/18 00:01:42;;;;;;;32.75;19.45;;;;;;;5.86;99.34;101673.06;4934032;28;20052;-50
2020/12/18 00:04:08;;;;;;;27.50;18.83;;;;;;;5.86;99.55;101672.19;4936108;28;20075;-53
2020/12/18 00:06:36;;;;;;;27.90;18.42;;;;;;;5.90;99.19;101668.19;4933033;28;20095;-52
2020/12/18 00:09:04;;;;;;;28.80;18.63;;;;;;;5.85;99.26;101668.78;4935171;28;20099;-53
2020/12/18 00:11:30;;;;;;;29.45;17.30;;;;;;;5.87;99.19;101669.78;4934545;28;20573;-52
2020/12/18 00:13:57;;;;;;;27.02;17.77;;;;;;;5.90;99.01;101669.06;4934420;28;20257;-53
2020/12/18 00:16:26;;;;;;;30.67;18.98;;;;;;;5.89;99.08;101664.75;4936366;28;20051;-53
2020/12/18 00:18:53;;;;;;;29.13;17.90;;;;;;;5.94;98.92;101670.16;4933735;28;20052;-49
2020/12/18 00:21:20;;;;;;;28.90;17.48;;;;;;;5.91;98.66;101667.38;4936932;28;20532;-53
2020/12/18 00:23:48;;;;;;;27.73;17.65;;;;;;;5.96;98.36;101666.94;4933843;28;20433;-53
2020/12/18 00:26:15;;;;;;;27.00;17.60;;;;;;;5.94;98.84;101672.69;4932309;28;20138;-52
2020/12/18 00:28:41;;;;;;;28.92;18.33;;;;;;;5.93;98.80;101668.41;4933431;28;20356;-55
2020/12/18 00:31:08;;;;;;;29.52;17.60;;;;;;;5.97;98.58;101670.34;4935860;28;20107;-53
2020/12/18 00:33:35;;;;;;;24.90;17.48;;;;;;;6.00;98.12;101673.06;4932863;28;20056;-54
2020/12/18 00:36:02;;;;;;;25.42;17.75;;;;;;;6.04;97.68;101675.88;4933327;29;20067;-54
2020/12/18 00:38:28;;;;;;;29.40;17.90;;;;;;;6.02;97.80;101674.03;4933866;28;20160;-52
2020/12/18 00:40:55;;;;;;;25.40;16.30;;;;;;;6.02;97.71;101674.03;4933547;28;20114;-54
2020/12/18 00:43:21;;;;;;;26.48;18.20;;;;;;;6.04;97.86;101668.25;4934959;28;20529;-53
2020/12/18 00:45:48;;;;;;;29.42;18.58;;;;;;;6.03;97.88;101679.22;4933196;28;20055;-52
2020/12/18 00:48:14;;;;;;;26.95;17.65;;;;;;;6.07;97.89;101682.81;4935556;28;20106;-54
2020/12/18 00:50:40;;;;;;;26.63;18.33;;;;;;;6.07;97.58;101681.16;4933075;28;20059;-49
2020/12/18 00:53:08;;;;;;;26.33;17.75;;;;;;;6.10;97.52;101682.97;4935416;28;20114;-52
2020/12/18 00:55:35;;;;;;;28.92;18.67;;;;;;;6.07;97.23;101678.63;4929659;28;20458;-55
2020/12/18 00:58:01;;;;;;;27.65;17.17;;;;;;;6.16;97.30;101682.50;4933811;28;20506;-53
2020/12/18 01:00:28;;;;;;;25.88;17.25;;;;;;;6.13;97.18;101685.72;4933606;28;20055;-51
2020/12/18 01:02:54;;;;;;;28.10;18.38;;;;;;;6.19;97.15;101685.19;4933225;28;20052;-51
2020/12/18 01:05:21;;;;;;;30.17;18.05;;;;;;;6.17;97.07;101685.13;4934373;28;20457;-51
2020/12/18 01:07:47;;;;;;;30.23;18.08;;;;;;;6.22;96.92;101687.94;4929998;28;20107;-53
2020/12/18 01:10:14;;;;;;;25.65;17.02;;;;;;;6.22;96.75;101686.25;4935260;28;20145;-56
2020/12/18 01:12:40;;;;;;;27.40;17.95;;;;;;;6.25;96.56;101686.47;4931913;28;20079;-53
2020/12/18 01:15:07;;;;;;;29.02;18.00;;;;;;;6.18;96.98;101686.88;4935301;28;20060;-52
2020/12/18 01:17:33;;;;;;;32.03;18.30;;;;;;;6.26;96.77;101683.13;4932661;28;20102;-54
2020/12/18 01:20:00;;;;;;;30.15;17.58;;;;;;;6.26;96.32;101693.28;4933621;28;20356;-52
2020/12/18 01:22:27;;;;;;;26.10;18.40;;;;;;;6.23;95.88;101692.22;4933556;28;20161;-55
2020/12/18 01:24:53;;;;;;;30.00;18.38;;;;;;;6.15;96.36;101693.44;4932928;28;20051;-54
2020/12/18 01:27:20;;;;;;;29.73;18.92;;;;;;;5.94;96.93;101693.91;4931404;28;20533;-52
2020/12/18 01:29:47;;;;;;;27.95;18.48;;;;;;;6.11;96.84;101697.47;4932513;28;20577;-55
2020/12/18 01:32:13;;;;;;;31.13;18.63;;;;;;;6.13;96.80;101698.44;4934960;28;20043;-54
2020/12/18 01:34:43;;;;;;;27.50;18.30;;;;;;;6.13;96.62;101703.53;4932594;28;20399;-51
2020/12/18 01:37:13;;;;;;;26.58;17.38;;;;;;;6.15;96.82;101711.22;4934419;28;20051;-57
2020/12/18 01:39:39;;;;;;;29.30;18.58;;;;;;;6.19;96.21;101710.63;4932568;28;20502;-53
2020/12/18 01:42:06;;;;;;;27.80;18.10;;;;;;;6.21;97.15;101697.22;4934494;28;20498;-51
2020/12/18 01:44:32;;;;;;;29.88;19.05;;;;;;;6.25;96.18;101704.25;4932509;28;20401;-51
2020/12/18 01:46:59;;;;;;;30.58;19.15;;;;;;;6.24;95.86;101697.44;4933000;28;20055;-56
2020/12/18 01:49:26;;;;;;;30.27;18.70;;;;;;;6.23;95.85;101702.41;4933411;28;20506;-50
2020/12/18 01:51:53;;;;;;;27.85;18.17;;;;;;;6.14;95.97;101702.72;4932140;28;20513;-53
2020/12/18 01:54:24;;;;;;;29.65;18.85;;;;;;;6.16;96.04;101705.38;4934054;28;20114;-52
2020/12/18 01:56:51;;;;;;;26.33;17.23;;;;;;;6.13;96.06;101708.59;4931951;28;20048;-56
2020/12/18 01:59:18;;;;;;;29.83;18.65;;;;;;;6.13;95.61;101700.97;4929751;28;20106;-51
2020/12/18 02:01:46;;;;;;;29.33;19.45;;;;;;;6.10;96.17;101701.69;4928129;28;20282;-50
2020/12/18 02:04:12;;;;;;;28.55;18.05;;;;;;;6.12;95.81;101700.09;4934448;28;20055;-55
2020/12/18 02:06:43;;;;;;;27.58;18.17;;;;;;;6.10;95.66;101710.94;4931466;28;20051;-53
2020/12/18 02:09:09;;;;;;;28.10;17.58;;;;;;;6.10;95.56;101716.03;4933854;28;20055;-56
2020/12/18 02:11:36;;;;;;;29.20;18.38;;;;;;;6.12;95.37;101712.81;4931430;28;20122;-54
2020/12/18 02:14:02;;;;;;;27.67;17.98;;;;;;;5.95;95.71;101715.13;4933470;28;20092;-49
2020/12/18 02:16:29;;;;;;;26.48;16.95;;;;;;;5.93;95.70;101722.66;4932663;28;20638;-55
2020/12/18 02:18:56;;;;;;;30.15;19.27;;;;;;;5.92;95.69;101723.47;4932329;28;20139;-53
2020/12/18 02:21:22;;;;;;;27.02;18.33;;;;;;;5.79;96.09;101724.34;4934705;28;20059;-51
2020/12/18 02:23:49;;;;;;;30.17;19.17;;;;;;;5.66;96.77;101720.94;4931829;28;20051;-55
2020/12/18 02:26:18;;;;;;;28.73;18.70;;;;;;;5.66;96.41;101720.94;4933962;28;20055;-54
2020/12/18 02:28:46;;;;;;;31.77;19.77;;;;;;;5.53;97.11;101725.25;4927652;28;20265;-51
2020/12/18 02:31:13;;;;;;;28.85;18.27;;;;;;;5.49;96.92;101719.88;4934116;28;20044;-55
2020/12/18 02:33:41;;;;;;;33.63;21.38;;;;;;;5.41;97.34;101716.88;4931792;28;20048;-56
2020/12/18 02:36:08;;;;;;;33.05;19.90;;;;;;;5.33;97.43;101718.94;4934215;28;20540;-52
2020/12/18 02:38:34;;;;;;;34.42;19.95;;;;;;;5.30;97.54;101721.25;4932827;28;20542;-54
2020/12/18 02:41:01;;;;;;;35.53;19.60;;;;;;;5.25;97.32;101725.16;4932956;28;20047;-52
2020/12/18 02:43:28;;;;;;;33.80;20.80;;;;;;;5.15;97.93;101725.38;4932537;28;20081;-53
2020/12/18 02:45:55;;;;;;;34.50;21.23;;;;;;;5.14;97.52;101726.16;4931843;28;20048;-53
2020/12/18 02:48:21;;;;;;;34.10;20.50;;;;;;;5.15;97.83;101725.38;4935019;28;20059;-55
2020/12/18 02:50:49;;;;;;;37.47;21.13;;;;;;;5.12;97.78;101737.84;4934992;28;20331;-54
2020/12/18 02:53:18;;;;;;;32.53;20.38;;;;;;;5.10;97.89;101734.34;4937705;28;20094;-54
2020/12/18 02:55:46;;;;;;;34.40;20.48;;;;;;;5.05;97.86;101731.53;4931046;28;20054;-56
2020/12/18 02:58:13;;;;;;;34.35;22.02;;;;;;;5.10;97.42;101726.75;4937567;28;20055;-53
2020/12/18 03:00:41;;;;;;;38.00;20.65;;;;;;;5.13;97.34;101738.72;4935497;28;20044;-52
2020/12/18 03:03:08;;;;;;;30.10;19.35;;;;;;;5.11;97.02;101733.56;4935414;28;20127;-53
2020/12/18 03:05:35;;;;;;;33.30;20.75;;;;;;;5.15;96.67;101734.66;4934052;28;20043;-54
2020/12/18 03:08:02;;;;;;;34.33;21.25;;;;;;;5.10;97.18;101727.63;4936743;28;20062;-55
2020/12/18 03:10:29;;;;;;;34.10;19.75;;;;;;;5.22;97.00;101730.06;4936026;28;20062;-54
2020/12/18 03:12:56;;;;;;;35.95;19.73;;;;;;;5.18;96.36;101733.19;4935750;28;20510;-54
2020/12/18 03:15:22;;;;;;;31.27;19.02;;;;;;;5.15;96.75;101730.44;4936907;28;20540;-52
2020/12/18 03:17:49;;;;;;;30.40;19.27;;;;;;;5.25;96.41;101731.91;4934750;28;20506;-54
2020/12/18 03:20:15;;;;;;;31.17;19.23;;;;;;;5.19;96.63;101734.06;4937635;28;20083;-53
2020/12/18 03:22:46;;;;;;;31.33;19.67;;;;;;;5.13;96.39;101734.56;4931155;28;20051;-56
2020/12/18 03:25:12;;;;;;;30.25;19.48;;;;;;;5.21;96.15;101732.50;4937415;28;20043;-55
2020/12/18 03:27:44;;;;;;;32.67;19.20;;;;;;;5.22;96.00;101736.78;4934766;28;20475;-55
2020/12/18 03:30:11;;;;;;;35.50;19.67;;;;;;;5.18;96.23;101738.28;4937346;28;20103;-52
2020/12/18 03:32:38;;;;;;;25.98;18.27;;;;;;;5.11;96.09;101739.53;4936422;28;20055;-51
2020/12/18 03:35:05;;;;;;;28.65;18.15;;;;;;;5.02;96.85;101738.06;4937064;28;20055;-54
2020/12/18 03:37:33;;;;;;;32.40;20.42;;;;;;;5.03;96.67;101734.72;4935277;28;20059;-49
2020/12/18 03:40:00;;;;;;;30.25;19.88;;;;;;;5.06;96.61;101735.81;4936175;28;20060;-49
2020/12/18 03:42:27;;;;;;;36.35;18.63;;;;;;;4.97;96.98;101740.28;4936059;28;20059;-53
2020/12/18 03:44:53;;;;;;;31.85;19.00;;;;;;;5.04;96.88;101749.19;4934952;28;20484;-51
2020/12/18 03:47:20;;;;;;;31.15;19.80;;;;;;;5.07;96.31;101744.31;4934541;28;20055;-53
2020/12/18 03:49:47;;;;;;;28.52;18.45;;;;;;;4.99;96.26;101738.75;4932247;28;20047;-53
2020/12/18 03:52:13;;;;;;;31.02;17.77;;;;;;;5.00;96.57;101732.88;4936672;28;20058;-55
2020/12/18 03:54:39;;;;;;;32.88;19.42;;;;;;;4.99;96.23;101735.31;4934698;28;20378;-52
2020/12/18 03:57:06;;;;;;;31.17;19.75;;;;;;;4.90;96.77;101743.22;4936637;28;20051;-53
2020/12/18 03:59:33;;;;;;;31.13;19.20;;;;;;;4.84;96.74;101737.72;4934492;28;20056;-52
2020/12/18 04:01:59;;;;;;;30.92;19.33;;;;;;;4.84;96.30;101742.81;4935653;28;20122;-54
2020/12/18 04:04:25;;;;;;;32.22;18.92;;;;;;;4.83;96.18;101748.66;4936805;28;20051;-51
2020/12/18 04:06:52;;;;;;;34.95;19.98;;;;;;;4.75;96.56;101744.75;4934219;28;20603;-53
2020/12/18 04:09:18;;;;;;;31.75;19.08;;;;;;;4.78;96.73;101748.38;4936366;28;20050;-53
2020/12/18 04:11:45;;;;;;;34.13;20.05;;;;;;;4.75;96.44;101753.22;4930236;28;20051;-52
2020/12/18 04:14:11;;;;;;;35.05;19.27;;;;;;;4.80;96.41;101758.59;4936672;28;20063;-56
2020/12/18 04:16:38;;;;;;;33.33;20.42;;;;;;;4.79;96.65;101745.03;4934740;28;20047;-52
2020/12/18 04:19:05;;;;;;;30.70;19.17;;;;;;;4.82;96.12;101752.88;4936399;28;20565;-49
2020/12/18 04:21:32;;;;;;;30.88;20.50;;;;;;;4.75;96.42;101753.22;4934618;28;20048;-55
2020/12/18 04:24:00;;;;;;;33.92;20.45;;;;;;;4.78;96.51;101753.44;4935047;28;20051;-54
2020/12/18 04:26:26;;;;;;;32.25;20.05;;;;;;;4.82;96.06;101757.94;4934881;28;20146;-52
2020/12/18 04:28:53;;;;;;;34.53;20.27;;;;;;;4.63;96.47;101757.50;4933973;28;20055;-55
2020/12/18 04:31:19;;;;;;;34.30;21.00;;;;;;;4.71;96.79;101760.53;4936192;28;20589;-54
2020/12/18 04:33:46;;;;;;;32.10;19.95;;;;;;;4.81;96.14;101766.34;4934038;28;20051;-48
2020/12/18 04:36:13;;;;;;;31.90;19.90;;;;;;;4.78;96.43;101762.72;4936230;28;20349;-51
2020/12/18 04:38:40;;;;;;;36.20;21.35;;;;;;;4.68;96.60;101766.31;4933878;28;20414;-54
2020/12/18 04:41:07;;;;;;;36.75;20.73;;;;;;;4.59;96.70;101760.63;4937060;28;20051;-53
2020/12/18 04:43:33;;;;;;;31.90;20.15;;;;;;;4.85;96.36;101770.84;4934074;28;20107;-55
2020/12/18 04:46:00;;;;;;;29.60;19.75;;;;;;;4.82;96.07;101768.09;4934822;28;20458;-56
2020/12/18 04:48:28;;;;;;;30.00;19.38;;;;;;;4.94;95.00;101762.94;4934455;28;20055;-53
2020/12/18 04:50:58;;;;;;;31.13;20.05;;;;;;;4.73;95.61;101762.41;4933874;28;20079;-49
2020/12/18 04:53:41;;;;;;;28.40;19.25;;;;;;;4.78;95.50;101772.88;4932944;28;20584;-53
2020/12/18 04:56:12;;;;;;;32.72;20.63;;;;;;;4.68;95.43;101768.84;4936210;28;20055;-53
2020/12/18 04:58:39;;;;;;;36.70;19.80;;;;;;;4.63;95.42;101764.25;4928933;28;20040;-49
2020/12/18 05:01:06;;;;;;;35.58;20.67;;;;;;;4.42;97.09;101758.59;4935233;28;20466;-55
2020/12/18 05:03:34;;;;;;;34.28;21.20;;;;;;;4.37;97.38;101759.94;4933648;28;20134;-55
2020/12/18 05:06:04;;;;;;;31.35;20.02;;;;;;;4.55;96.20;101764.59;4933150;28;20494;-52
2020/12/18 05:08:31;;;;;;;35.05;20.85;;;;;;;4.48;96.24;101764.06;4933162;28;20418;-55
2020/12/18 05:10:58;;;;;;;35.13;20.55;;;;;;;4.52;96.92;101763.50;4933395;28;20048;-54
2020/12/18 05:13:24;;;;;;;35.40;21.20;;;;;;;4.49;96.33;101763.31;4934612;28;20052;-49
2020/12/18 05:15:52;;;;;;;33.25;20.70;;;;;;;4.42;96.59;101767.06;4933202;28;20047;-50
2020/12/18 05:18:21;;;;;;;32.95;20.05;;;;;;;4.55;96.45;101776.41;4931157;28;20506;-49
2020/12/18 05:20:48;;;;;;;35.22;21.13;;;;;;;4.53;96.33;101770.31;4929792;28;20455;-54
2020/12/18 05:23:14;;;;;;;32.85;20.23;;;;;;;4.61;96.69;101779.34;4935410;28;20090;-53
2020/12/18 05:25:41;;;;;;;28.90;18.63;;;;;;;4.64;96.46;101774.47;4933341;28;20127;-50
2020/12/18 05:28:17;;;;;;;33.20;20.30;;;;;;;4.76;96.76;101782.00;4935871;28;20058;-52
2020/12/18 05:30:46;;;;;;;30.17;19.27;;;;;;;4.72;95.57;101782.63;4934593;28;20055;-53
2020/12/18 05:33:18;;;;;;;30.10;18.98;;;;;;;4.92;94.81;101783.94;4935746;28;20047;-51
2020/12/18 05:35:44;;;;;;;31.67;19.70;;;;;;;4.91;94.95;101789.78;4933073;28;20426;-54
2020/12/18 05:38:11;;;;;;;31.13;19.30;;;;;;;4.82;95.03;101779.91;4935125;28;20055;-54
2020/12/18 05:40:37;;;;;;;31.42;19.70;;;;;;;4.81;95.47;101780.69;4933498;28;20051;-55
2020/12/18 05:43:07;;;;;;;33.88;18.90;;;;;;;4.83;94.98;101781.66;4934472;28;20098;-56
2020/12/18 05:45:33;;;;;;;33.05;20.30;;;;;;;4.78;95.73;101777.94;4933170;28;20048;-53
2020/12/18 05:48:03;;;;;;;33.60;20.63;;;;;;;4.79;94.89;101782.22;4935044;28;20055;-53
2020/12/18 05:50:34;;;;;;;31.40;19.75;;;;;;;4.75;94.95;101781.13;4933524;28;20055;-52
2020/12/18 05:53:04;;;;;;;31.40;19.20;;;;;;;4.72;95.08;101792.75;4934009;29;20122;-53
2020/12/18 05:55:41;;;;;;;28.55;18.70;;;;;;;4.77;94.75;101793.94;4933453;28;20422;-56
2020/12/18 05:58:14;;;;;;;34.70;19.27;;;;;;;4.79;94.99;101797.44;4932543;29;20043;-53
2020/12/18 06:00:41;;;;;;;29.92;19.50;;;;;;;4.81;95.59;101799.31;4933431;28;20493;-51
2020/12/18 06:03:10;;;;;;;31.48;19.77;;;;;;;4.84;94.93;101808.78;4935091;29;20115;-54
2020/12/18 06:05:38;;;;;;;29.35;19.00;;;;;;;4.85;94.88;101805.47;4933803;28;20782;-55
2020/12/18 06:08:18;;;;;;;30.88;18.98;;;;;;;4.89;94.73;101806.56;4934129;29;20051;-52
2020/12/18 06:10:45;;;;;;;29.80;19.90;;;;;;;4.94;94.08;101805.19;4929465;28;20107;-52
2020/12/18 06:13:12;;;;;;;29.25;17.98;;;;;;;4.91;94.59;101800.81;4934775;29;20058;-54
2020/12/18 06:15:39;;;;;;;32.88;18.75;;;;;;;4.94;93.75;101805.19;4932738;29;20051;-54
2020/12/18 06:18:05;;;;;;;27.92;18.90;;;;;;;5.04;93.62;101805.06;4934244;29;20495;-53
2020/12/18 06:20:36;;;;;;;30.63;18.58;;;;;;;4.92;94.36;101812.72;4932715;28;20055;-54
2020/12/18 06:23:04;;;;;;;31.65;18.98;;;;;;;4.95;94.29;101807.84;4934099;28;20048;-54
2020/12/18 06:25:31;;;;;;;28.70;18.20;;;;;;;5.05;92.99;101816.97;4936858;28;20098;-53
2020/12/18 06:28:03;;;;;;;31.02;19.20;;;;;;;4.91;93.44;101813.50;4932768;29;20044;-54
2020/12/18 06:30:30;;;;;;;29.27;17.98;;;;;;;4.90;93.60;101810.84;4936501;28;20075;-50
2020/12/18 06:32:57;;;;;;;29.58;17.55;;;;;;;4.95;93.52;101822.22;4934226;29;20106;-53
2020/12/18 06:35:35;;;;;;;28.73;18.67;;;;;;;4.91;93.29;101821.13;4937297;28;20047;-54
2020/12/18 06:38:14;;;;;;;33.33;17.50;;;;;;;4.85;94.35;101820.69;4934991;29;20410;-53
2020/12/18 06:40:42;;;;;;;29.45;17.90;;;;;;;4.92;93.68;101817.78;4934762;29;20232;-51
2020/12/18 06:43:10;;;;;;;30.77;18.55;;;;;;;4.78;94.16;101823.63;4938458;29;20419;-55
2020/12/18 06:45:37;;;;;;;32.30;19.25;;;;;;;4.75;94.35;101821.72;4933415;29;20047;-49
2020/12/18 06:48:31;;;;;;;29.85;18.30;;;;;;;4.83;93.31;101823.13;4933255;29;20047;-55
2020/12/18 06:51:00;;;;;;;28.30;17.25;;;;;;;4.79;93.96;101825.38;4929675;29;20123;-52
2020/12/18 06:53:27;;;;;;;30.05;19.42;;;;;;;4.70;94.01;101825.63;4929603;28;20086;-51
2020/12/18 06:55:53;;;;;;;29.65;17.90;;;;;;;4.78;93.79;101821.06;4934813;29;20051;-53
2020/12/18 06:58:23;;;;;;;30.45;18.73;;;;;;;4.74;93.61;101825.06;4936298;28;20764;-57
2020/12/18 07:00:59;;;;;;;30.08;17.70;;;;;;;4.58;95.17;101819.75;4934311;29;20055;-56
2020/12/18 07:03:37;;;;;;;27.92;17.67;;;;;;;4.69;94.49;101815.38;4934559;29;20063;-48
2020/12/18 07:06:10;;;;;;;28.35;18.73;;;;;;;4.66;94.20;101833.81;4938960;28;20099;-52
2020/12/18 07:08:39;;;;;;;31.73;19.33;;;;;;;4.76;94.17;101826.06;4934965;29;20043;-53
2020/12/18 07:11:14;;;;;;;30.98;19.15;;;;;;;4.79;94.12;101828.78;4937834;29;20709;-57
2020/12/18 07:13:50;;;;;;;31.08;19.30;;;;;;;4.69;95.07;101826.41;4935690;29;20043;-48
2020/12/18 07:16:24;;;;;;;29.38;18.42;;;;;;;4.73;94.20;101825.84;4932474;29;20129;-55
2020/12/18 07:19:10;;;;;;;28.13;19.02;;;;;;;4.87;93.73;101819.16;4933693;28;20098;-49
2020/12/18 07:21:41;;;;;;;28.85;18.77;;;;;;;4.77;94.46;101824.41;4934481;29;20050;-50
2020/12/18 07:24:07;;;;;;;27.80;18.77;;;;;;;4.87;93.97;101818.28;4938560;28;20100;-49
2020/12/18 07:26:34;;;;;;;28.58;18.13;;;;;;;5.02;93.58;101816.75;4934991;28;20051;-54
2020/12/18 07:29:00;;;;;;;23.90;17.25;;;;;;;4.79;94.22;101813.56;4933503;29;20158;-53
2020/12/18 07:31:31;;;;;;;29.92;18.17;;;;;;;4.93;94.04;101818.66;4934150;28;20051;-54
2020/12/18 07:34:00;;;;;;;31.63;18.67;;;;;;;4.99;93.92;101819.97;4932941;29;20056;-52
2020/12/18 07:36:28;;;;;;;27.73;17.48;;;;;;;4.67;94.67;101811.84;4935902;28;20096;-53
2020/12/18 07:38:59;;;;;;;29.92;19.17;;;;;;;4.93;94.13;101816.13;4935302;29;20118;-55
2020/12/18 07:41:27;;;;;;;32.78;18.48;;;;;;;4.85;93.79;101815.63;4936545;28;20114;-52
2020/12/18 07:44:02;;;;;;;28.30;17.63;;;;;;;4.97;94.42;101821.50;4935429;29;20450;-55
2020/12/18 07:46:31;;;;;;;28.83;19.90;;;;;;;5.15;93.32;101815.91;4935608;28;20054;-55
2020/12/18 07:48:57;;;;;;;30.02;17.23;;;;;;;4.86;93.53;101814.88;4936270;28;20091;-51
2020/12/18 07:51:24;;;;;;;26.70;16.42;;;;;;;5.25;92.66;101820.78;4936262;28;20590;-46
2020/12/18 07:53:52;;;;;;;27.80;17.85;;;;;;;5.25;92.49;101816.59;4934964;29;20162;-49
2020/12/18 07:56:20;;;;;;;28.05;17.33;;;;;;;5.16;92.10;101818.53;4928762;29;20051;-48
2020/12/18 07:58:51;;;;;;;28.15;17.38;;;;;;;5.32;91.78;101825.50;4927048;29;20048;-49
2020/12/18 08:01:21;;;;;;;28.05;17.70;;;;;;;5.00;93.55;101826.81;4930566;29;20078;-47
2020/12/18 08:03:55;;;;;;;29.55;17.58;;;;;;;5.02;93.03;101819.28;4931127;29;20062;-46
2020/12/18 08:06:23;;;;;;;26.08;16.45;;;;;;;5.31;92.59;101834.75;4932371;29;20577;-49
2020/12/18 08:08:56;;;;;;;29.60;17.45;;;;;;;5.30;93.31;101827.03;4937064;28;20055;-47
2020/12/18 08:11:25;;;;;;;33.38;19.80;;;;;;;5.30;91.25;101830.47;4932647;29;20106;-45
2020/12/18 08:13:51;;;;;;;30.38;19.40;;;;;;;5.16;93.25;101831.22;4934431;29;20103;-49
2020/12/18 08:16:20;;;;;;;29.95;19.02;;;;;;;5.33;92.88;101833.22;4936522;28;20102;-48
2020/12/18 08:18:52;;;;;;;28.88;19.02;;;;;;;5.02;92.64;101830.31;4930329;29;20075;-47
2020/12/18 08:21:20;;;;;;;34.10;19.58;;;;;;;4.78;94.35;101824.50;4931949;29;20059;-49
2020/12/18 08:23:56;;;;;;;27.35;17.90;;;;;;;4.98;93.58;101827.47;4929858;29;20055;-49
2020/12/18 08:26:25;;;;;;;25.80;17.52;;;;;;;5.35;92.75;101835.84;4930959;29;20166;-46
2020/12/18 08:28:52;;;;;;;27.92;17.70;;;;;;;5.40;91.58;101824.31;4931490;29;20105;-49
2020/12/18 08:31:22;;;;;;;29.23;18.98;;;;;;;4.98;93.00;101827.47;4933502;28;20062;-51
2020/12/18 08:33:54;;;;;;;26.90;18.60;;;;;;;5.19;92.28;101826.34;4927573;29;20103;-44
2020/12/18 08:36:25;;;;;;;29.83;18.17;;;;;;;5.21;92.54;101829.00;4931488;29;20087;-48
2020/12/18 08:39:02;;;;;;;26.42;17.73;;;;;;;5.14;93.34;101839.53;4931152;29;20051;-43
2020/12/18 08:41:48;;;;;;;27.10;17.75;;;;;;;5.31;92.22;101842.38;4931929;28;20126;-45
2020/12/18 08:44:22;;;;;;;25.45;16.52;;;;;;;5.28;93.45;101843.84;4931088;29;20482;-49
2020/12/18 08:46:50;;;;;;;27.98;17.90;;;;;;;5.09;93.23;101845.19;4924981;28;20910;-47
2020/12/18 08:49:17;;;;;;;25.20;17.50;;;;;;;5.37;91.95;101839.38;4929848;29;20066;-45
2020/12/18 08:51:46;;;;;;;25.55;16.77;;;;;;;5.05;93.03;101838.16;4932314;29;20898;-46
2020/12/18 08:54:29;;;;;;;24.85;17.33;;;;;;;5.38;92.29;101845.34;4933039;29;20055;-45
2020/12/18 08:57:25;;;;;;;27.83;17.27;;;;;;;5.88;89.62;101854.53;4928609;29;20051;-47
2020/12/18 08:59:55;;;;;;;28.50;17.92;;;;;;;5.52;90.61;101847.97;4928051;29;20043;-48
2020/12/18 09:02:22;;;;;;;25.88;17.05;;;;;;;5.09;94.40;101857.88;4932837;28;20059;-45
2020/12/18 09:05:06;;;;;;;27.67;18.13;;;;;;;5.06;94.16;101852.59;4932469;29;20047;-45
2020/12/18 09:07:37;;;;;;;30.20;16.98;;;;;;;5.48;93.18;101845.16;4933442;29;20847;-45
2020/12/18 09:10:04;;;;;;;27.02;17.50;;;;;;;5.54;91.17;101846.41;4934566;29;20059;-44
2020/12/18 09:12:41;;;;;;;27.02;16.85;;;;;;;5.29;92.94;101855.78;4930239;28;20065;-43
2020/12/18 09:15:24;;;;;;;24.52;16.60;;;;;;;6.86;89.02;101847.84;4931873;29;20087;-45
2020/12/18 09:18:05;;;;;;;24.08;15.07;;;;;;;7.80;81.33;101851.53;4928343;29;20044;-44
2020/12/18 09:20:33;;;;;;;19.40;13.82;;;;;;;7.93;81.23;101842.88;4931349;29;20102;-44
2020/12/18 09:23:06;;;;;;;20.95;14.10;;;;;;;8.82;77.12;101848.50;4933754;29;20205;-44
2020/12/18 09:25:44;;;;;;;17.25;12.57;;;;;;;9.94;73.03;101848.91;4930350;29;20800;-45
2020/12/18 09:28:17;;;;;;;16.25;11.75;;;;;;;9.70;73.14;101846.91;4932638;29;20106;-44
2020/12/18 09:30:52;;;;;;;15.30;11.98;;;;;;;9.68;72.46;101842.53;4929958;29;20498;-45
2020/12/18 09:33:25;;;;;;;;;;;;;;;8.30;77.16;101838.09;4927858;29;20514;-44
2020/12/18 09:36:05;;;;;;;20.55;13.23;;;;;;;8.16;78.86;101847.56;4923859;29;20007;-44
2020/12/18 09:38:48;;;;;;;18.90;12.40;;;;;;;8.87;75.91;101847.09;4931474;28;20107;-42
2020/12/18 09:41:20;;;;;;;16.30;11.98;;;;;;;8.98;75.22;101841.63;4931827;29;20102;-47
2020/12/18 09:43:47;;;;;;;18.17;12.32;;;;;;;9.17;74.18;101841.75;4927856;29;20074;-47
2020/12/18 09:46:14;;;;;;;16.10;11.50;;;;;;;9.33;73.87;101841.69;4933058;29;20457;-48
2020/12/18 09:48:42;;;;;;;15.98;11.07;;;;;;;9.44;74.47;101832.00;4931769;29;20530;-46
2020/12/18 09:51:12;;;;;;;16.45;10.65;;;;;;;9.37;74.64;101822.28;4933587;29;20051;-49
2020/12/18 09:53:39;;;;;;;19.77;11.68;;;;;;;9.54;73.02;101828.22;4930608;29;20058;-50
2020/12/18 09:56:13;;;;;;;14.40;10.75;;;;;;;9.03;74.13;101833.41;4932126;29;20055;-49
2020/12/18 09:58:39;;;;;;;16.63;11.68;;;;;;;8.82;75.62;101828.06;4930584;29;20075;-47
2020/12/18 10:01:06;;;;;;;19.40;12.65;;;;;;;8.47;77.17;101828.81;4934379;29;20071;-46
2020/12/18 10:03:33;;;;;;;19.23;11.98;;;;;;;8.86;75.91;101827.44;4932782;28;20047;-48
2020/12/18 10:06:00;;;;;;;19.25;11.85;;;;;;;9.00;76.53;101832.38;4931709;28;20048;-50
2020/12/18 10:08:29;;;;;;;15.13;10.57;;;;;;;9.91;72.65;101834.25;4927417;28;20043;-46
2020/12/18 10:10:55;;;;;;;15.98;9.90;;;;;;;10.24;69.63;101833.19;4926885;28;20044;-49
2020/12/18 10:13:22;;;;;;;13.18;9.50;;;;;;;10.09;69.50;101828.25;4925503;29;20059;-45
2020/12/18 10:15:48;;;;;;;15.85;10.75;;;;;;;9.79;71.31;101823.44;4930461;29;20056;-46
2020/12/18 10:18:17;;;;;;;17.35;10.02;;;;;;;9.38;72.69;101831.69;4930426;29;20082;-48
2020/12/18 10:20:44;;;;;;;17.45;10.32;;;;;;;8.95;73.79;101827.03;4930662;29;20466;-45
2020/12/18 10:23:10;;;;;;;14.15;10.15;;;;;;;8.90;74.10;101831.03;4933279;29;20055;-47
2020/12/18 10:25:48;;;;;;;16.38;10.18;;;;;;;8.89;74.31;101819.94;4927807;29;20052;-43
2020/12/18 10:28:14;;;;;;;12.85;9.68;;;;;;;9.04;73.87;101824.94;4933837;29;20059;-50
2020/12/18 10:30:42;;;;;;;15.43;9.98;;;;;;;8.66;76.60;101823.88;4932385;29;20056;-46
2020/12/18 10:33:09;;;;;;;14.48;9.65;;;;;;;8.61;76.34;101820.19;4910133;28;20048;-48
2020/12/18 10:35:35;;;;;;;15.48;9.60;;;;;;;8.51;76.38;101822.22;4930419;29;20047;-48
2020/12/18 10:38:02;;;;;;;14.15;9.40;;;;;;;8.23;77.92;101813.06;4933143;29;20470;-46
2020/12/18 10:40:31;;;;;;;14.73;9.55;;;;;;;8.03;78.32;101803.44;4932989;29;20047;-49
2020/12/18 10:42:58;;;;;;;14.90;9.77;;;;;;;7.89;79.57;101811.22;4933181;29;20087;-45
2020/12/18 10:45:25;;;;;;;14.93;10.00;;;;;;;7.77;80.41;101799.50;4929858;29;20074;-45
2020/12/18 10:47:51;;;;;;;14.13;10.00;;;;;;;7.68;81.19;101814.28;4931366;29;20066;-48
2020/12/18 10:50:17;;;;;;;14.55;9.63;;;;;;;8.09;79.36;101811.44;4934172;29;20601;-46
2020/12/18 10:52:47;;;;;;;13.40;9.48;;;;;;;8.11;79.13;101814.94;4927924;29;20153;-46
2020/12/18 10:55:13;;;;;;;13.57;8.95;;;;;;;8.02;78.76;101810.22;4934699;29;20576;-44
2020/12/18 10:57:40;;;;;;;11.18;8.80;;;;;;;8.00;78.91;101809.28;4930520;29;20052;-48
2020/12/18 11:00:06;;;;;;;15.52;9.48;;;;;;;8.17;79.48;101810.16;4933234;29;20079;-47
2020/12/18 11:02:35;;;;;;;16.05;9.85;;;;;;;8.14;79.18;101802.38;4931611;28;20694;-49
2020/12/18 11:05:02;;;;;;;13.77;9.18;;;;;;;8.13;80.05;101806.59;4933074;29;20462;-49
2020/12/18 11:07:29;;;;;;;14.52;9.60;;;;;;;8.28;79.36;101806.53;4929729;28;20154;-47
2020/12/18 11:09:55;;;;;;;14.68;9.50;;;;;;;8.38;79.21;101802.81;4931165;29;20056;-44
2020/12/18 11:12:22;;;;;;;13.50;9.52;;;;;;;8.55;78.90;101807.13;4936799;28;20055;-48
2020/12/18 11:14:48;;;;;;;12.15;9.05;;;;;;;8.60;78.03;101798.03;4934872;29;20048;-45
2020/12/18 11:17:15;;;;;;;17.10;8.70;;;;;;;8.85;77.11;101810.34;4938049;29;20593;-52
2020/12/18 11:19:41;;;;;;;11.77;8.60;;;;;;;9.01;75.81;101806.00;4935363;29;20044;-51
2020/12/18 11:22:08;;;;;;;12.82;8.57;;;;;;;9.36;74.37;101806.06;4937449;29;20051;-45
2020/12/18 11:24:37;;;;;;;10.85;7.63;;;;;;;9.37;74.74;101804.38;4935414;28;20083;-47
2020/12/18 11:27:03;;;;;;;12.82;7.10;;;;;;;10.14;72.94;101798.63;4936089;29;20047;-49